Vremea acum in Caransebes - Romania

Vrei sa afli care e starea vremii acum in Caras-Severin - Romania? Dorim sa iti furnizam starea vremii pentru Caras-Severin - Romania. Starea vremii Caras-Severin - Romania pentru astazi.

Vremea acum in Caransebes

Temperatura: 5.5 °C

Este: Senin
Se simte ca: 4.9 °C
Innorat: 5 %
Precipitatii: 0 %
Presiune atmosferica: 1020 hPa
Umiditate: 69%
Vizibilitate: 10 km
Vantul bate din E cu 4.3 km/h

Evolutia vremii in Caransebes pe ore

Ora: 06:00
Senin
Temperatura: 4.7°C
Sansa de precipitatii: 0%
Ora Descriere Temp Se simte Precipitatii Umiditate Vant
00:00Senin5.3°4.1°0%56%ESE 5.8 KM/H
01:00Senin5.1°4.2°0%58%E 5 KM/H
02:00Senin4.9°4.1°0%60%E 4.7 KM/H
03:00Senin4.8°4.1°0%62%E 4.3 KM/H
04:00Senin4.6°3.9°0%65%E 4.3 KM/H
05:00Senin4.7°3.5°0%66%ESE 5.4 KM/H
06:00Senin4.7°3.5°0%68%ESE 5.4 KM/H
07:00Senin5.5°4.9°0%69%E 4.3 KM/H
08:00Senin10.2°10.2°0%61%NNE 1.4 KM/H
09:00Senin13.7°14.4°0%54%WNW 3.6 KM/H
10:00Senin15.7°15.7°0%50%WNW 5.8 KM/H
11:00Senin17.6°17.6°0%47%WNW 8.3 KM/H
12:00Senin18.9°18.9°0%45%WNW 10.8 KM/H
13:00Senin19.8°19.8°0%44%WNW 12.2 KM/H
14:00Senin20.5°20.5°0%44%WNW 13.3 KM/H
15:00Senin21°21°0%44%WNW 13.3 KM/H
16:00Senin21.3°21.3°0%43%WNW 13.3 KM/H
17:00Senin21.1°21.1°0%44%WNW 12.2 KM/H
18:00Senin20.7°20.7°0%48%WNW 11.5 KM/H
19:00Senin19.6°19.6°0%58%WNW 9 KM/H
20:00Senin14.3°14.9°0%74%W 4 KM/H
21:00Senin11.3°11.3°0%83%SE 2.5 KM/H
22:00Senin10.5°10.2°0%85%ESE 5.4 KM/H
23:00Senin9.9°9.3°0%83%ESE 6.1 KM/H




tutorials